createdAt,value
2018-03-17T00:00:05.675Z,1002.56
2018-03-17T00:01:05.782Z,1002.56
2018-03-17T00:02:05.689Z,1002.62
2018-03-17T00:03:07.843Z,1002.58
2018-03-17T00:04:05.689Z,1002.67
2018-03-17T00:05:12.361Z,1002.50
2018-03-17T00:06:05.693Z,1002.53
2018-03-17T00:07:07.867Z,1002.58
2018-03-17T00:08:05.698Z,1002.60
2018-03-17T00:09:16.381Z,1002.50
2018-03-17T00:10:05.711Z,1002.53
2018-03-17T00:11:10.351Z,1002.53
2018-03-17T00:12:05.712Z,1002.56
2018-03-17T00:13:10.364Z,1002.53
2018-03-17T00:14:05.716Z,1002.47
2018-03-17T00:15:06.896Z,1002.51
2018-03-17T00:16:05.724Z,1002.48
2018-03-17T00:17:06.917Z,1002.49
2018-03-17T00:18:05.727Z,1002.41
2018-03-17T00:19:05.905Z,1002.50
2018-03-17T00:20:05.730Z,1002.49
2018-03-17T00:21:22.408Z,1002.49
2018-03-17T00:22:05.740Z,1002.49
2018-03-17T00:23:07.880Z,1002.46
2018-03-17T00:24:05.749Z,1002.32
2018-03-17T00:25:06.868Z,1002.55
2018-03-17T00:26:05.742Z,1002.42
2018-03-17T00:27:12.923Z,1002.36
2018-03-17T00:28:05.754Z,1002.35
2018-03-17T00:29:10.886Z,1002.42
2018-03-17T00:30:05.756Z,1002.43
2018-03-17T00:31:06.913Z,1002.32
2018-03-17T00:32:05.757Z,1002.41
2018-03-17T00:33:07.948Z,1002.41
2018-03-17T00:34:05.769Z,1002.37
2018-03-17T00:35:05.934Z,1002.47
2018-03-17T00:36:05.781Z,1002.41
2018-03-17T00:37:06.951Z,1002.36
2018-03-17T00:38:05.771Z,1002.48
2018-03-17T00:39:06.963Z,1002.39
2018-03-17T00:40:05.780Z,1002.43
2018-03-17T00:41:06.983Z,1002.38
2018-03-17T00:42:05.869Z,1002.42
2018-03-17T00:43:05.861Z,1002.45
2018-03-17T00:44:05.794Z,1002.43
2018-03-17T00:45:11.924Z,1002.46
2018-03-17T00:46:05.807Z,1002.42
2018-03-17T00:47:06.005Z,1002.48
2018-03-17T00:48:05.806Z,1002.46
2018-03-17T00:49:06.937Z,1002.48
2018-03-17T00:50:05.812Z,1002.40
2018-03-17T00:51:10.938Z,1002.46
2018-03-17T00:52:05.814Z,1002.49
2018-03-17T00:53:05.934Z,1002.47
2018-03-17T00:54:05.839Z,1002.45
2018-03-17T00:55:06.971Z,1002.47
2018-03-17T00:56:05.819Z,1002.43
2018-03-17T00:57:06.991Z,1002.51
2018-03-17T00:58:05.826Z,1002.51
2018-03-17T00:59:06.997Z,1002.52
2018-03-17T01:00:05.830Z,1002.50
2018-03-17T01:01:05.984Z,1002.52
2018-03-17T01:02:05.840Z,1002.49
2018-03-17T01:03:05.999Z,1002.63
2018-03-17T01:04:05.843Z,1002.51
2018-03-17T01:05:06.014Z,1002.58
2018-03-17T01:06:05.845Z,1002.58
2018-03-17T01:07:08.077Z,1002.46
2018-03-17T01:08:05.848Z,1002.55
2018-03-17T01:09:06.040Z,1002.59
2018-03-17T01:10:05.861Z,1002.55
2018-03-17T01:11:06.057Z,1002.49
2018-03-17T01:12:05.861Z,1002.63
2018-03-17T01:13:10.885Z,1002.63
2018-03-17T01:14:05.865Z,1002.55
2018-03-17T01:15:07.004Z,1002.65
2018-03-17T01:16:05.875Z,1002.62
2018-03-17T01:17:05.994Z,1002.69
2018-03-17T01:18:05.880Z,1002.64
2018-03-17T01:19:06.006Z,1002.63
2018-03-17T01:20:05.879Z,1002.65
2018-03-17T01:21:06.943Z,1002.64
2018-03-17T01:22:05.883Z,1002.58
2018-03-17T01:23:05.961Z,1002.63
2018-03-17T01:24:05.889Z,1002.59
2018-03-17T01:25:05.959Z,1002.59
2018-03-17T01:26:05.894Z,1002.54
2018-03-17T01:27:06.982Z,1002.57
2018-03-17T01:28:05.902Z,1002.61
2018-03-17T01:29:07.000Z,1002.59
2018-03-17T01:30:05.903Z,1002.56
2018-03-17T01:31:05.994Z,1002.59
2018-03-17T01:32:05.906Z,1002.53
2018-03-17T01:33:05.997Z,1002.54
2018-03-17T01:34:05.914Z,1002.52
2018-03-17T01:35:06.012Z,1002.57
2018-03-17T01:36:05.927Z,1002.56
2018-03-17T01:37:06.033Z,1002.55
2018-03-17T01:38:05.921Z,1002.51
2018-03-17T01:39:06.047Z,1002.49
2018-03-17T01:40:05.926Z,1002.48
2018-03-17T01:41:11.809Z,1002.49
2018-03-17T01:42:05.931Z,1002.60
2018-03-17T01:43:05.969Z,1002.54
2018-03-17T01:44:05.937Z,1002.55
2018-03-17T01:45:05.982Z,1002.67
2018-03-17T01:46:05.981Z,1002.64
2018-03-17T01:47:06.000Z,1002.48
2018-03-17T01:48:05.951Z,1002.66
2018-03-17T01:49:06.008Z,1002.64
2018-03-17T01:50:05.948Z,1002.64
2018-03-17T01:51:06.022Z,1002.57
2018-03-17T01:52:05.954Z,1002.55
2018-03-17T01:53:06.035Z,1002.61
2018-03-17T01:54:05.962Z,1002.71
2018-03-17T01:55:06.048Z,1002.57
2018-03-17T01:56:05.963Z,1002.70
2018-03-17T01:57:06.061Z,1002.57
2018-03-17T01:58:05.964Z,1002.59
2018-03-17T01:59:06.074Z,1002.57
2018-03-17T02:00:05.976Z,1002.60
2018-03-17T02:01:06.087Z,1002.70
2018-03-17T02:02:05.974Z,1002.64
2018-03-17T02:03:07.025Z,1002.55
2018-03-17T02:04:05.980Z,1002.60
2018-03-17T02:05:06.116Z,1002.62
2018-03-17T02:06:05.985Z,1002.70
2018-03-17T02:07:06.027Z,1002.57
2018-03-17T02:08:05.987Z,1002.63
2018-03-17T02:09:07.070Z,1002.71
2018-03-17T02:10:06.015Z,1002.63
2018-03-17T02:11:06.052Z,1002.66
2018-03-17T02:12:06.001Z,1002.65
2018-03-17T02:13:06.065Z,1002.65
2018-03-17T02:14:06.002Z,1002.62
2018-03-17T02:15:06.082Z,1002.59
2018-03-17T02:16:06.010Z,1002.58
2018-03-17T02:17:06.096Z,1002.59
2018-03-17T02:18:06.017Z,1002.50
2018-03-17T02:19:06.108Z,1002.57
2018-03-17T02:20:06.016Z,1002.57
2018-03-17T02:21:07.155Z,1002.60
2018-03-17T02:22:06.023Z,1002.50
2018-03-17T02:23:06.141Z,1002.60
2018-03-17T02:24:06.025Z,1002.46
2018-03-17T02:25:06.146Z,1002.52
2018-03-17T02:26:06.030Z,1002.38
2018-03-17T02:27:11.799Z,1002.41
2018-03-17T02:28:06.037Z,1002.45
2018-03-17T02:29:07.102Z,1002.46
2018-03-17T02:30:06.042Z,1002.46
2018-03-17T02:31:07.115Z,1002.48
2018-03-17T02:32:06.048Z,1002.49
2018-03-17T02:33:06.106Z,1002.42
2018-03-17T02:34:06.051Z,1002.41
2018-03-17T02:35:07.146Z,1002.39
2018-03-17T02:36:06.054Z,1002.45
2018-03-17T02:37:07.150Z,1002.42
2018-03-17T02:38:06.064Z,1002.43
2018-03-17T02:39:06.144Z,1002.47
2018-03-17T02:40:06.058Z,1002.42
2018-03-17T02:41:06.162Z,1002.36
2018-03-17T02:42:06.065Z,1002.51
2018-03-17T02:43:06.171Z,1002.31
2018-03-17T02:44:06.070Z,1002.38
2018-03-17T02:45:06.183Z,1002.32
2018-03-17T02:46:06.073Z,1002.35
2018-03-17T02:47:06.198Z,1002.35
2018-03-17T02:48:06.076Z,1002.35
2018-03-17T02:49:06.211Z,1002.31
2018-03-17T02:50:06.083Z,1002.31
2018-03-17T02:51:06.230Z,1002.28
2018-03-17T02:52:06.085Z,1002.29
2018-03-17T02:53:06.245Z,1002.29
2018-03-17T02:54:06.093Z,1002.26
2018-03-17T02:55:06.265Z,1002.28
2018-03-17T02:56:06.095Z,1002.24
2018-03-17T02:57:06.166Z,1002.24
2018-03-17T02:58:06.098Z,1002.14
2018-03-17T02:59:06.181Z,1002.19
2018-03-17T03:00:06.103Z,1002.19
2018-03-17T03:01:07.219Z,1002.25
2018-03-17T03:02:06.110Z,1002.21
2018-03-17T03:03:07.241Z,1002.12
2018-03-17T03:04:06.117Z,1002.19
2018-03-17T03:05:07.276Z,1002.19
2018-03-17T03:06:06.116Z,1002.15
2018-03-17T03:07:06.235Z,1002.16
2018-03-17T03:08:06.124Z,1002.25
2018-03-17T03:09:07.274Z,1002.27
2018-03-17T03:10:06.157Z,1002.22
2018-03-17T03:11:06.270Z,1002.34
2018-03-17T03:12:06.132Z,1002.30
2018-03-17T03:13:06.274Z,1002.28
2018-03-17T03:14:06.136Z,1002.34
2018-03-17T03:15:06.287Z,1002.33
2018-03-17T03:16:06.132Z,1002.28
2018-03-17T03:17:06.302Z,1002.32
2018-03-17T03:18:06.147Z,1002.27
2018-03-17T03:19:06.212Z,1002.25
2018-03-17T03:20:06.146Z,1002.24
2018-03-17T03:21:06.225Z,1002.26
2018-03-17T03:22:06.148Z,1002.23
2018-03-17T03:23:07.262Z,1002.22
2018-03-17T03:24:06.151Z,1002.25
2018-03-17T03:25:08.308Z,1002.21
2018-03-17T03:26:06.156Z,1002.28
2018-03-17T03:27:06.269Z,1002.30
2018-03-17T03:28:06.193Z,1002.21
2018-03-17T03:29:06.280Z,1002.28
2018-03-17T03:30:06.166Z,1002.25
2018-03-17T03:31:06.294Z,1002.29
2018-03-17T03:32:06.168Z,1002.22
2018-03-17T03:33:08.261Z,1002.27
2018-03-17T03:34:06.178Z,1002.30
2018-03-17T03:35:06.334Z,1002.30
2018-03-17T03:36:06.178Z,1002.34
2018-03-17T03:37:06.336Z,1002.38
2018-03-17T03:38:06.182Z,1002.27
2018-03-17T03:39:07.310Z,1002.31
2018-03-17T03:40:06.189Z,1002.30
2018-03-17T03:41:06.364Z,1002.33
2018-03-17T03:42:06.190Z,1002.27
2018-03-17T03:43:06.272Z,1002.35
2018-03-17T03:44:06.190Z,1002.29
2018-03-17T03:45:06.290Z,1002.21
2018-03-17T03:46:06.196Z,1002.22
2018-03-17T03:47:06.295Z,1002.24
2018-03-17T03:48:06.197Z,1002.21
2018-03-17T03:49:07.339Z,1002.22
2018-03-17T03:50:06.219Z,1002.15
2018-03-17T03:51:07.352Z,1002.09
2018-03-17T03:52:06.207Z,1002.16
2018-03-17T03:53:06.342Z,1002.14
2018-03-17T03:54:06.211Z,1002.17
2018-03-17T03:55:06.355Z,1002.15
2018-03-17T03:56:06.214Z,1002.14
2018-03-17T03:57:06.368Z,1002.23
2018-03-17T03:58:06.222Z,1002.19
2018-03-17T03:59:06.383Z,1002.19
2018-03-17T04:00:06.224Z,1002.29
2018-03-17T04:01:06.394Z,1002.16
2018-03-17T04:02:06.228Z,1002.31
2018-03-17T04:03:06.408Z,1002.27
2018-03-17T04:04:06.226Z,1002.37
2018-03-17T04:05:06.320Z,1002.13
2018-03-17T04:06:06.236Z,1002.29
2018-03-17T04:07:06.334Z,1002.15
2018-03-17T04:08:06.243Z,1002.25
2018-03-17T04:09:07.370Z,1002.26
2018-03-17T04:10:06.248Z,1002.30
2018-03-17T04:11:06.362Z,1002.23
2018-03-17T04:12:06.245Z,1002.25
2018-03-17T04:13:06.376Z,1002.36
2018-03-17T04:14:06.253Z,1002.16
2018-03-17T04:15:06.388Z,1002.14
2018-03-17T04:16:06.254Z,1002.30
2018-03-17T04:17:06.401Z,1002.26
2018-03-17T04:18:06.257Z,1002.25
2018-03-17T04:19:06.413Z,1002.27
2018-03-17T04:20:06.264Z,1002.21
2018-03-17T04:21:06.430Z,1002.16
2018-03-17T04:22:06.267Z,1002.27
2018-03-17T04:23:06.440Z,1002.30
2018-03-17T04:24:06.271Z,1002.30
2018-03-17T04:25:06.456Z,1002.28
2018-03-17T04:26:06.270Z,1002.24
2018-03-17T04:27:06.367Z,1002.21
2018-03-17T04:28:06.284Z,1002.20
2018-03-17T04:29:06.384Z,1002.31
2018-03-17T04:30:06.278Z,1002.20
2018-03-17T04:31:06.393Z,1002.33
2018-03-17T04:32:06.314Z,1002.30
2018-03-17T04:33:06.411Z,1002.29
2018-03-17T04:34:06.282Z,1002.28
2018-03-17T04:35:06.424Z,1002.23
2018-03-17T04:36:06.292Z,1002.25
2018-03-17T04:37:06.435Z,1002.33
2018-03-17T04:38:06.289Z,1002.36
2018-03-17T04:39:06.449Z,1002.25
2018-03-17T04:40:06.303Z,1002.22
2018-03-17T04:41:06.470Z,1002.24
2018-03-17T04:42:06.304Z,1002.16
2018-03-17T04:43:06.474Z,1002.23
2018-03-17T04:44:06.301Z,1002.20
2018-03-17T04:45:06.389Z,1002.27
2018-03-17T04:46:06.312Z,1002.25
2018-03-17T04:47:06.505Z,1002.21
2018-03-17T04:48:06.315Z,1002.22
2018-03-17T04:49:06.418Z,1002.28
2018-03-17T04:50:06.308Z,1002.15
2018-03-17T04:51:06.428Z,1002.25
2018-03-17T04:52:06.314Z,1002.25
2018-03-17T04:53:06.446Z,1002.29
2018-03-17T04:54:06.327Z,1002.41
2018-03-17T04:55:06.462Z,1002.41
2018-03-17T04:56:06.324Z,1002.42
2018-03-17T04:57:06.470Z,1002.39
2018-03-17T04:58:06.341Z,1002.42
2018-03-17T04:59:06.492Z,1002.46
2018-03-17T05:00:06.328Z,1002.40
2018-03-17T05:01:06.502Z,1002.41
2018-03-17T05:02:06.338Z,1002.42
2018-03-17T05:03:06.515Z,1002.40
2018-03-17T05:04:06.381Z,1002.36
2018-03-17T05:05:06.530Z,1002.40
2018-03-17T05:06:06.339Z,1002.30
2018-03-17T05:07:06.537Z,1002.38
2018-03-17T05:08:06.344Z,1002.36
2018-03-17T05:09:06.554Z,1002.35
2018-03-17T05:10:06.350Z,1002.37
2018-03-17T05:11:06.463Z,1002.39
2018-03-17T05:12:06.348Z,1002.35
2018-03-17T05:13:06.507Z,1002.39
2018-03-17T05:14:06.352Z,1002.30
2018-03-17T05:15:06.494Z,1002.37
2018-03-17T05:16:06.359Z,1002.44
2018-03-17T05:17:06.506Z,1002.33
2018-03-17T05:18:06.366Z,1002.30
2018-03-17T05:19:06.520Z,1002.31
2018-03-17T05:20:06.372Z,1002.36
2018-03-17T05:21:06.532Z,1002.30
2018-03-17T05:22:06.364Z,1002.32
2018-03-17T05:23:06.545Z,1002.29
2018-03-17T05:24:06.372Z,1002.26
2018-03-17T05:25:06.561Z,1002.22
2018-03-17T05:26:06.378Z,1002.16
2018-03-17T05:27:06.568Z,1002.27
2018-03-17T05:28:06.374Z,1002.18
2018-03-17T05:29:06.589Z,1002.22
2018-03-17T05:30:06.379Z,1002.19
2018-03-17T05:31:06.603Z,1002.20
2018-03-17T05:32:06.389Z,1002.24
2018-03-17T05:33:06.509Z,1002.20
2018-03-17T05:34:06.387Z,1002.15
2018-03-17T05:35:06.523Z,1002.18
2018-03-17T05:36:06.390Z,1002.22
2018-03-17T05:37:06.540Z,1002.30
2018-03-17T05:38:06.392Z,1002.26
2018-03-17T05:39:06.552Z,1002.23
2018-03-17T05:40:06.396Z,1002.29
2018-03-17T05:41:06.568Z,1002.25
2018-03-17T05:42:06.400Z,1002.27
2018-03-17T05:43:06.472Z,1002.22
2018-03-17T05:44:06.409Z,1002.31
2018-03-17T05:45:06.486Z,1002.33
2018-03-17T05:46:06.410Z,1002.38
2018-03-17T05:47:06.502Z,1002.31
2018-03-17T05:48:06.414Z,1002.19
2018-03-17T05:49:06.521Z,1002.10
2018-03-17T05:50:06.415Z,1002.21
2018-03-17T05:51:06.532Z,1002.20
2018-03-17T05:52:06.418Z,1002.24
2018-03-17T05:53:06.442Z,1002.18
2018-03-17T05:54:06.422Z,1002.17
2018-03-17T05:55:06.456Z,1002.21
2018-03-17T05:56:06.422Z,1002.28
2018-03-17T05:57:06.469Z,1002.18
2018-03-17T05:58:06.425Z,1002.27
2018-03-17T05:59:06.535Z,1002.22
2018-03-17T06:00:06.435Z,1002.30
2018-03-17T06:01:06.502Z,1002.23
2018-03-17T06:02:06.434Z,1002.34
2018-03-17T06:03:06.510Z,1002.29
2018-03-17T06:04:06.433Z,1002.33
2018-03-17T06:05:06.523Z,1002.23
2018-03-17T06:06:06.436Z,1002.33
2018-03-17T06:07:06.536Z,1002.31
2018-03-17T06:08:06.440Z,1002.34
2018-03-17T06:09:07.575Z,1002.30
2018-03-17T06:10:06.442Z,1002.32
2018-03-17T06:11:06.568Z,1002.32
2018-03-17T06:12:06.446Z,1002.33
2018-03-17T06:13:06.582Z,1002.30
2018-03-17T06:14:06.497Z,1002.34
2018-03-17T06:15:06.495Z,1002.37
2018-03-17T06:16:06.452Z,1002.39
2018-03-17T06:17:07.527Z,1002.44
2018-03-17T06:18:06.458Z,1002.48
2018-03-17T06:19:06.515Z,1002.37
2018-03-17T06:20:06.458Z,1002.50
2018-03-17T06:21:06.532Z,1002.49
2018-03-17T06:22:06.461Z,1002.51
2018-03-17T06:23:07.566Z,1002.40
2018-03-17T06:24:06.469Z,1002.56
2018-03-17T06:25:06.555Z,1002.40
2018-03-17T06:26:06.469Z,1002.39
2018-03-17T06:27:06.570Z,1002.49
2018-03-17T06:28:06.468Z,1002.36
2018-03-17T06:29:06.585Z,1002.47
2018-03-17T06:30:06.476Z,1002.26
2018-03-17T06:31:06.606Z,1002.27
2018-03-17T06:32:06.485Z,1002.27
2018-03-17T06:33:06.612Z,1002.22
2018-03-17T06:34:06.477Z,1002.23
2018-03-17T06:35:06.529Z,1002.27
2018-03-17T06:36:06.481Z,1002.22
2018-03-17T06:37:06.538Z,1002.20
2018-03-17T06:38:06.486Z,1002.25
2018-03-17T06:39:06.556Z,1002.27
2018-03-17T06:40:06.491Z,1002.25
2018-03-17T06:41:06.567Z,1002.28
2018-03-17T06:42:06.493Z,1002.25
2018-03-17T06:43:06.580Z,1002.36
2018-03-17T06:44:06.495Z,1002.29
2018-03-17T06:45:06.592Z,1002.37
2018-03-17T06:46:06.496Z,1002.31
2018-03-17T06:47:06.611Z,1002.35
2018-03-17T06:48:06.499Z,1002.34
2018-03-17T06:49:06.620Z,1002.34
2018-03-17T06:50:06.500Z,1002.38
2018-03-17T06:51:06.634Z,1002.43
2018-03-17T06:52:06.505Z,1002.37
2018-03-17T06:53:06.650Z,1002.33
2018-03-17T06:54:06.505Z,1002.33
2018-03-17T06:55:06.558Z,1002.35
2018-03-17T06:56:06.508Z,1002.32
2018-03-17T06:57:06.576Z,1002.38
2018-03-17T06:58:06.513Z,1002.35
2018-03-17T06:59:06.591Z,1002.31
2018-03-17T07:00:06.515Z,1002.34
2018-03-17T07:01:06.603Z,1002.34
2018-03-17T07:02:06.520Z,1002.34
2018-03-17T07:03:06.616Z,1002.47
2018-03-17T07:04:06.530Z,1002.38
2018-03-17T07:05:06.630Z,1002.32
2018-03-17T07:06:06.524Z,1002.44
2018-03-17T07:07:06.540Z,1002.39
2018-03-17T07:08:06.525Z,1002.40
2018-03-17T07:09:06.553Z,1002.51
2018-03-17T07:10:06.523Z,1002.39
2018-03-17T07:11:06.567Z,1002.42
2018-03-17T07:12:06.530Z,1002.48
2018-03-17T07:13:06.585Z,1002.45
2018-03-17T07:14:06.541Z,1002.54
2018-03-17T07:15:06.604Z,1002.52
2018-03-17T07:16:06.536Z,1002.48
2018-03-17T07:17:06.609Z,1002.56
2018-03-17T07:18:06.540Z,1002.62
2018-03-17T07:19:06.663Z,1002.67
2018-03-17T07:20:06.543Z,1002.49
2018-03-17T07:21:06.634Z,1002.63
2018-03-17T07:22:06.541Z,1002.50
2018-03-17T07:23:06.644Z,1002.54
2018-03-17T07:24:06.546Z,1002.66
2018-03-17T07:25:07.579Z,1002.55
2018-03-17T07:26:06.553Z,1002.50
2018-03-17T07:27:07.599Z,1002.56
2018-03-17T07:28:06.553Z,1002.49
2018-03-17T07:29:06.584Z,1002.46
2018-03-17T07:30:06.554Z,1002.54
2018-03-17T07:31:08.645Z,1002.60
2018-03-17T07:32:06.594Z,1002.71
2018-03-17T07:33:06.616Z,1002.58
2018-03-17T07:34:06.559Z,1002.62
2018-03-17T07:35:06.629Z,1002.63
2018-03-17T07:36:06.561Z,1002.60
2018-03-17T07:37:06.640Z,1002.62
2018-03-17T07:38:06.564Z,1002.55
2018-03-17T07:39:06.664Z,1002.51
2018-03-17T07:40:06.572Z,1002.54
2018-03-17T07:41:06.678Z,1002.58
2018-03-17T07:42:06.568Z,1002.55
2018-03-17T07:43:06.692Z,1002.67
2018-03-17T07:44:06.573Z,1002.49
2018-03-17T07:45:06.606Z,1002.61
2018-03-17T07:46:06.578Z,1002.51
2018-03-17T07:47:06.611Z,1002.63
2018-03-17T07:48:06.589Z,1002.67
2018-03-17T07:49:06.621Z,1002.60
2018-03-17T07:50:06.579Z,1002.64
2018-03-17T07:51:06.639Z,1002.56
2018-03-17T07:52:06.583Z,1002.62
2018-03-17T07:53:08.694Z,1002.74
2018-03-17T07:54:06.584Z,1002.60
2018-03-17T07:55:06.667Z,1002.64
2018-03-17T07:56:06.590Z,1002.80
2018-03-17T07:57:06.675Z,1002.69
2018-03-17T07:58:06.594Z,1002.70
2018-03-17T07:59:07.731Z,1002.67
2018-03-17T08:00:06.597Z,1002.66
2018-03-17T08:01:06.701Z,1002.68
2018-03-17T08:02:06.610Z,1002.69
2018-03-17T08:03:06.614Z,1002.67
2018-03-17T08:04:06.599Z,1002.69
2018-03-17T08:05:06.627Z,1002.61
2018-03-17T08:06:06.602Z,1002.53
2018-03-17T08:07:06.640Z,1002.57
2018-03-17T08:08:06.607Z,1002.49
2018-03-17T08:09:06.654Z,1002.56
2018-03-17T08:10:06.612Z,1002.57
2018-03-17T08:11:06.666Z,1002.56
2018-03-17T08:12:06.615Z,1002.62
2018-03-17T08:13:06.680Z,1002.51
2018-03-17T08:14:06.611Z,1002.54
2018-03-17T08:15:06.695Z,1002.60
2018-03-17T08:16:06.610Z,1002.51
2018-03-17T08:17:06.712Z,1002.55
2018-03-17T08:18:06.618Z,1002.56
2018-03-17T08:19:07.696Z,1002.55
2018-03-17T08:20:06.621Z,1002.57
2018-03-17T08:21:06.690Z,1002.68
2018-03-17T08:22:06.622Z,1002.53
2018-03-17T08:23:06.700Z,1002.64
2018-03-17T08:24:06.631Z,1002.55
2018-03-17T08:25:06.710Z,1002.71
2018-03-17T08:26:06.637Z,1002.63
2018-03-17T08:27:07.649Z,1002.69
2018-03-17T08:28:06.628Z,1002.63
2018-03-17T08:29:06.743Z,1002.63
2018-03-17T08:30:06.634Z,1002.63
2018-03-17T08:31:06.649Z,1002.59
2018-03-17T08:32:06.635Z,1002.66
2018-03-17T08:33:06.671Z,1002.65
2018-03-17T08:34:06.659Z,1002.57
2018-03-17T08:35:07.714Z,1002.53
2018-03-17T08:36:06.637Z,1002.45
2018-03-17T08:37:06.698Z,1002.61
2018-03-17T08:38:06.639Z,1002.56
2018-03-17T08:39:06.709Z,1002.49
2018-03-17T08:40:06.641Z,1002.64
2018-03-17T08:41:07.743Z,1002.56
2018-03-17T08:42:06.644Z,1002.57
2018-03-17T08:43:06.735Z,1002.52
2018-03-17T08:44:06.653Z,1002.64
2018-03-17T08:45:06.747Z,1002.58
2018-03-17T08:46:06.651Z,1002.58
2018-03-17T08:47:06.817Z,1002.62
2018-03-17T08:48:06.684Z,1002.56
2018-03-17T08:49:07.678Z,1002.59
2018-03-17T08:50:06.658Z,1002.51
2018-03-17T08:51:06.769Z,1002.56
2018-03-17T08:52:06.660Z,1002.54
2018-03-17T08:53:06.791Z,1002.58
2018-03-17T08:54:06.660Z,1002.56
2018-03-17T08:55:08.738Z,1002.49
2018-03-17T08:56:06.659Z,1002.48
2018-03-17T08:57:08.759Z,1002.54
2018-03-17T08:58:06.664Z,1002.54
2018-03-17T08:59:06.680Z,1002.56
2018-03-17T09:00:06.665Z,1002.59
2018-03-17T09:01:06.690Z,1002.50
2018-03-17T09:02:06.665Z,1002.46
2018-03-17T09:03:06.709Z,1002.48
2018-03-17T09:04:06.676Z,1002.48
2018-03-17T09:05:06.724Z,1002.35
2018-03-17T09:06:06.679Z,1002.53
2018-03-17T09:07:06.736Z,1002.51
2018-03-17T09:08:06.674Z,1002.52
2018-03-17T09:09:06.748Z,1002.63
2018-03-17T09:10:06.677Z,1002.65
2018-03-17T09:11:06.771Z,1002.66
2018-03-17T09:12:06.684Z,1002.53
2018-03-17T09:13:06.774Z,1002.57
2018-03-17T09:14:06.685Z,1002.67
2018-03-17T09:15:06.791Z,1002.56
2018-03-17T09:16:06.682Z,1002.48
2018-03-17T09:17:06.702Z,1002.50
2018-03-17T09:18:06.742Z,1002.52
2018-03-17T09:19:06.714Z,1002.49
2018-03-17T09:20:06.692Z,1002.53
2018-03-17T09:21:06.732Z,1002.34
2018-03-17T09:22:06.698Z,1002.48
2018-03-17T09:23:06.749Z,1002.51
2018-03-17T09:24:06.696Z,1002.44
2018-03-17T09:25:06.761Z,1002.55
2018-03-17T09:26:06.698Z,1002.54
2018-03-17T09:27:06.773Z,1002.49
2018-03-17T09:28:06.703Z,1002.50
2018-03-17T09:29:07.810Z,1002.54
2018-03-17T09:30:06.709Z,1002.59
2018-03-17T09:31:06.796Z,1002.54
2018-03-17T09:32:06.707Z,1002.57
2018-03-17T09:33:06.814Z,1002.54
2018-03-17T09:34:06.707Z,1002.58
2018-03-17T09:35:07.752Z,1002.65
2018-03-17T09:36:06.713Z,1002.48
2018-03-17T09:37:06.743Z,1002.56
2018-03-17T09:38:06.713Z,1002.56
2018-03-17T09:39:06.757Z,1002.68
2018-03-17T09:40:06.714Z,1002.62
2018-03-17T09:41:06.772Z,1002.62
2018-03-17T09:42:06.735Z,1002.59
2018-03-17T09:43:06.783Z,1002.58
2018-03-17T09:44:06.722Z,1002.57
2018-03-17T09:45:06.792Z,1002.63
2018-03-17T09:46:06.725Z,1002.70
2018-03-17T09:47:06.807Z,1002.54
2018-03-17T09:48:06.726Z,1002.61
2018-03-17T09:49:06.726Z,1002.47
2018-03-17T09:50:06.829Z,1002.59
2018-03-17T09:51:06.726Z,1002.66
2018-03-17T09:52:06.730Z,1002.54
2018-03-17T09:53:07.671Z,1002.43
2018-03-17T09:54:06.728Z,1002.46
2018-03-17T09:55:06.734Z,1002.50
2018-03-17T09:56:06.765Z,1002.40
2018-03-17T09:57:06.736Z,1002.57
2018-03-17T09:58:06.781Z,1002.54
2018-03-17T09:59:06.735Z,1002.60
2018-03-17T10:00:06.797Z,1002.57
2018-03-17T10:01:06.745Z,1002.51
2018-03-17T10:02:06.811Z,1002.44
2018-03-17T10:03:06.739Z,1002.41
2018-03-17T10:04:06.822Z,1002.51
2018-03-17T10:05:06.746Z,1002.45
2018-03-17T10:06:06.833Z,1002.48
2018-03-17T10:07:06.749Z,1002.45
2018-03-17T10:08:06.853Z,1002.35
2018-03-17T10:09:06.750Z,1002.31
2018-03-17T10:10:06.866Z,1002.36
2018-03-17T10:11:06.747Z,1002.45
2018-03-17T10:12:06.772Z,1002.43
2018-03-17T10:13:06.760Z,1002.45
2018-03-17T10:14:06.787Z,1002.48
2018-03-17T10:15:06.757Z,1002.51
2018-03-17T10:16:06.804Z,1002.38
2018-03-17T10:17:06.755Z,1002.43
2018-03-17T10:18:06.816Z,1002.41
2018-03-17T10:19:06.757Z,1002.42
2018-03-17T10:20:06.835Z,1002.43
2018-03-17T10:21:06.763Z,1002.51
2018-03-17T10:22:06.839Z,1002.18
2018-03-17T10:23:06.767Z,1002.49
2018-03-17T10:24:06.860Z,1002.38
2018-03-17T10:25:06.767Z,1002.35
2018-03-17T10:26:06.922Z,1002.35
2018-03-17T10:27:06.771Z,1002.34
2018-03-17T10:28:06.882Z,1002.46
2018-03-17T10:29:06.776Z,1002.39
2018-03-17T10:30:06.796Z,1002.40
2018-03-17T10:31:06.772Z,1002.47
2018-03-17T10:32:06.809Z,1002.34
2018-03-17T10:33:06.773Z,1002.35
2018-03-17T10:34:06.843Z,1002.45
2018-03-17T10:35:06.782Z,1002.42
2018-03-17T10:36:06.834Z,1002.55
2018-03-17T10:37:06.780Z,1002.49
2018-03-17T10:38:06.848Z,1002.52
2018-03-17T10:39:06.787Z,1002.52
2018-03-17T10:40:06.865Z,1002.44
2018-03-17T10:41:06.785Z,1002.47
2018-03-17T10:42:07.899Z,1002.50
2018-03-17T10:43:06.791Z,1002.42
2018-03-17T10:44:06.876Z,1002.53
2018-03-17T10:45:06.791Z,1002.43
2018-03-17T10:46:06.892Z,1002.47
2018-03-17T10:47:06.791Z,1002.50
2018-03-17T10:48:07.825Z,1002.51
2018-03-17T10:49:06.791Z,1002.56
2018-03-17T10:50:06.915Z,1002.44
2018-03-17T10:51:06.803Z,1002.45
2018-03-17T10:52:06.791Z,1002.52
2018-03-17T10:53:06.797Z,1002.57
2018-03-17T10:54:06.798Z,1002.43
2018-03-17T10:55:06.801Z,1002.63
2018-03-17T10:56:06.855Z,1002.47
2018-03-17T10:57:06.818Z,1002.52
2018-03-17T10:58:07.895Z,1002.52
2018-03-17T10:59:06.811Z,1002.50
2018-03-17T11:00:07.918Z,1002.51
2018-03-17T11:01:06.805Z,1002.48
2018-03-17T11:02:06.895Z,1002.49
2018-03-17T11:03:06.817Z,1002.45
2018-03-17T11:04:06.908Z,1002.52
2018-03-17T11:05:06.814Z,1002.41
2018-03-17T11:06:07.901Z,1002.47
2018-03-17T11:07:06.815Z,1002.50
2018-03-17T11:08:11.852Z,1002.39
2018-03-17T11:09:06.811Z,1002.39
2018-03-17T11:10:06.849Z,1002.41
2018-03-17T11:11:06.815Z,1002.34
2018-03-17T11:12:06.864Z,1002.46
2018-03-17T11:13:06.818Z,1002.34
2018-03-17T11:14:06.887Z,1002.34
2018-03-17T11:15:06.852Z,1002.33
2018-03-17T11:16:06.895Z,1002.36
2018-03-17T11:17:06.851Z,1002.35
2018-03-17T11:18:11.821Z,1002.23
2018-03-17T11:19:06.824Z,1002.34
2018-03-17T11:20:06.915Z,1002.40
2018-03-17T11:21:06.831Z,1002.41
2018-03-17T11:22:06.930Z,1002.26
2018-03-17T11:23:06.835Z,1002.36
2018-03-17T11:24:06.946Z,1002.38
2018-03-17T11:25:06.856Z,1002.42
2018-03-17T11:26:06.959Z,1002.46
2018-03-17T11:27:06.834Z,1002.33
2018-03-17T11:28:07.894Z,1002.32
2018-03-17T11:29:06.837Z,1002.39
2018-03-17T11:30:06.882Z,1002.30
2018-03-17T11:31:06.843Z,1002.32
2018-03-17T11:32:07.920Z,1002.33
2018-03-17T11:33:06.837Z,1002.29
2018-03-17T11:34:06.909Z,1002.31
2018-03-17T11:35:06.851Z,1002.35
2018-03-17T11:36:06.924Z,1002.31
2018-03-17T11:37:06.861Z,1002.32
2018-03-17T11:38:06.940Z,1002.31
2018-03-17T11:39:06.850Z,1002.31
2018-03-17T11:40:07.873Z,1002.28
2018-03-17T11:41:06.855Z,1002.25
2018-03-17T11:42:06.989Z,1002.45
2018-03-17T11:43:06.851Z,1002.17
2018-03-17T11:44:07.906Z,1002.24
2018-03-17T11:45:06.891Z,1002.30
2018-03-17T11:46:06.886Z,1002.23
2018-03-17T11:47:06.860Z,1002.35
2018-03-17T11:48:11.818Z,1002.18
2018-03-17T11:49:06.861Z,1002.28
2018-03-17T11:50:08.969Z,1002.07
2018-03-17T11:51:06.865Z,1002.17
2018-03-17T11:52:06.933Z,1002.33
2018-03-17T11:53:06.864Z,1002.10
2018-03-17T11:54:07.971Z,1002.22
2018-03-17T11:55:06.873Z,1002.29
2018-03-17T11:56:06.956Z,1002.35
2018-03-17T11:57:06.869Z,1002.27
2018-03-17T11:58:06.970Z,1002.20
2018-03-17T11:59:06.893Z,1002.17
2018-03-17T12:00:07.012Z,1002.16
2018-03-17T12:01:06.938Z,1002.20
2018-03-17T12:02:06.896Z,1002.23
2018-03-17T12:03:06.877Z,1002.16
2018-03-17T12:04:07.934Z,1002.33
2018-03-17T12:05:06.875Z,1002.33